sensor_id;sensor_type;location;lat;lon;timestamp;P1;durP1;ratioP1;P2;durP2;ratioP2
40653;SDS011;26344;45.532;9.232;2023-02-15T00:00:10;90.15;;;48.25;;
40653;SDS011;26344;45.532;9.232;2023-02-15T00:02:36;86.40;;;46.70;;
40653;SDS011;26344;45.532;9.232;2023-02-15T00:05:02;89.55;;;47.42;;
40653;SDS011;26344;45.532;9.232;2023-02-15T00:07:28;87.63;;;47.20;;
40653;SDS011;26344;45.532;9.232;2023-02-15T00:09:54;88.50;;;49.55;;
40653;SDS011;26344;45.532;9.232;2023-02-15T00:12:20;94.95;;;49.45;;
40653;SDS011;26344;45.532;9.232;2023-02-15T00:14:46;81.07;;;47.08;;
40653;SDS011;26344;45.532;9.232;2023-02-15T00:17:13;91.95;;;49.45;;
40653;SDS011;26344;45.532;9.232;2023-02-15T00:19:39;87.90;;;47.28;;
40653;SDS011;26344;45.532;9.232;2023-02-15T00:22:05;91.70;;;47.95;;
40653;SDS011;26344;45.532;9.232;2023-02-15T00:24:32;86.70;;;49.30;;
40653;SDS011;26344;45.532;9.232;2023-02-15T00:26:58;87.93;;;48.17;;
40653;SDS011;26344;45.532;9.232;2023-02-15T00:29:24;90.60;;;48.88;;
40653;SDS011;26344;45.532;9.232;2023-02-15T00:31:50;91.10;;;47.25;;
40653;SDS011;26344;45.532;9.232;2023-02-15T00:34:18;82.43;;;47.50;;
40653;SDS011;26344;45.532;9.232;2023-02-15T00:36:44;90.15;;;47.83;;
40653;SDS011;26344;45.532;9.232;2023-02-15T00:39:10;86.53;;;47.58;;
40653;SDS011;26344;45.532;9.232;2023-02-15T00:41:36;92.03;;;48.05;;
40653;SDS011;26344;45.532;9.232;2023-02-15T00:44:02;93.22;;;50.50;;
40653;SDS011;26344;45.532;9.232;2023-02-15T00:46:29;89.22;;;48.63;;
40653;SDS011;26344;45.532;9.232;2023-02-15T00:48:55;93.80;;;46.97;;
40653;SDS011;26344;45.532;9.232;2023-02-15T00:51:21;84.07;;;48.22;;
40653;SDS011;26344;45.532;9.232;2023-02-15T00:53:47;86.32;;;48.40;;
40653;SDS011;26344;45.532;9.232;2023-02-15T00:56:13;81.50;;;46.80;;
40653;SDS011;26344;45.532;9.232;2023-02-15T00:58:39;84.32;;;48.28;;
40653;SDS011;26344;45.532;9.232;2023-02-15T01:01:06;91.53;;;49.17;;
40653;SDS011;26344;45.532;9.232;2023-02-15T01:03:33;84.43;;;47.38;;
40653;SDS011;26344;45.532;9.232;2023-02-15T01:05:59;87.30;;;45.25;;
40653;SDS011;26344;45.532;9.232;2023-02-15T01:08:25;86.13;;;48.05;;
40653;SDS011;26344;45.532;9.232;2023-02-15T01:10:52;85.93;;;47.53;;
40653;SDS011;26344;45.532;9.232;2023-02-15T01:13:18;88.80;;;47.67;;
40653;SDS011;26344;45.532;9.232;2023-02-15T01:15:45;87.55;;;47.17;;
40653;SDS011;26344;45.532;9.232;2023-02-15T01:18:11;83.28;;;46.05;;
40653;SDS011;26344;45.532;9.232;2023-02-15T01:20:38;84.10;;;46.70;;
40653;SDS011;26344;45.532;9.232;2023-02-15T01:23:06;92.30;;;48.37;;
40653;SDS011;26344;45.532;9.232;2023-02-15T01:25:33;89.00;;;45.40;;
40653;SDS011;26344;45.532;9.232;2023-02-15T01:27:59;87.43;;;46.33;;
40653;SDS011;26344;45.532;9.232;2023-02-15T01:30:25;86.55;;;47.55;;
40653;SDS011;26344;45.532;9.232;2023-02-15T01:32:52;90.35;;;45.70;;
40653;SDS011;26344;45.532;9.232;2023-02-15T01:35:18;90.03;;;46.33;;
40653;SDS011;26344;45.532;9.232;2023-02-15T01:37:44;84.70;;;46.00;;
40653;SDS011;26344;45.532;9.232;2023-02-15T01:40:14;86.72;;;46.50;;
40653;SDS011;26344;45.532;9.232;2023-02-15T01:42:40;80.53;;;45.53;;
40653;SDS011;26344;45.532;9.232;2023-02-15T01:47:45;79.25;;;44.30;;
40653;SDS011;26344;45.532;9.232;2023-02-15T01:52:41;78.05;;;43.67;;
40653;SDS011;26344;45.532;9.232;2023-02-15T01:55:08;79.13;;;42.78;;
40653;SDS011;26344;45.532;9.232;2023-02-15T01:57:35;80.05;;;43.40;;
40653;SDS011;26344;45.532;9.232;2023-02-15T02:00:04;78.38;;;42.63;;
40653;SDS011;26344;45.532;9.232;2023-02-15T02:02:32;83.10;;;43.58;;
40653;SDS011;26344;45.532;9.232;2023-02-15T02:04:58;75.20;;;42.50;;
40653;SDS011;26344;45.532;9.232;2023-02-15T02:07:28;79.45;;;43.88;;
40653;SDS011;26344;45.532;9.232;2023-02-15T02:09:56;77.20;;;42.83;;
40653;SDS011;26344;45.532;9.232;2023-02-15T02:12:22;80.20;;;42.47;;
40653;SDS011;26344;45.532;9.232;2023-02-15T02:14:49;75.82;;;41.10;;
40653;SDS011;26344;45.532;9.232;2023-02-15T02:17:29;82.38;;;41.92;;
40653;SDS011;26344;45.532;9.232;2023-02-15T02:25:22;75.57;;;40.50;;
40653;SDS011;26344;45.532;9.232;2023-02-15T02:28:01;72.70;;;42.45;;
40653;SDS011;26344;45.532;9.232;2023-02-15T02:41:07;69.75;;;39.65;;
40653;SDS011;26344;45.532;9.232;2023-02-15T02:43:37;74.20;;;39.88;;
40653;SDS011;26344;45.532;9.232;2023-02-15T02:46:08;74.78;;;41.45;;
40653;SDS011;26344;45.532;9.232;2023-02-15T02:48:35;71.05;;;40.85;;
40653;SDS011;26344;45.532;9.232;2023-02-15T02:51:02;70.95;;;40.15;;
40653;SDS011;26344;45.532;9.232;2023-02-15T02:53:28;68.55;;;40.15;;
40653;SDS011;26344;45.532;9.232;2023-02-15T02:55:56;72.20;;;40.45;;
40653;SDS011;26344;45.532;9.232;2023-02-15T03:03:19;70.15;;;40.35;;
40653;SDS011;26344;45.532;9.232;2023-02-15T03:05:50;82.32;;;42.53;;
40653;SDS011;26344;45.532;9.232;2023-02-15T03:08:18;76.30;;;43.53;;
40653;SDS011;26344;45.532;9.232;2023-02-15T03:10:52;76.35;;;42.30;;
40653;SDS011;26344;45.532;9.232;2023-02-15T03:13:18;73.82;;;42.50;;
40653;SDS011;26344;45.532;9.232;2023-02-15T03:15:45;78.57;;;43.20;;
40653;SDS011;26344;45.532;9.232;2023-02-15T03:19:01;75.00;;;42.78;;
40653;SDS011;26344;45.532;9.232;2023-02-15T03:21:34;84.53;;;44.05;;
40653;SDS011;26344;45.532;9.232;2023-02-15T03:24:20;72.13;;;42.30;;
40653;SDS011;26344;45.532;9.232;2023-02-15T03:26:48;72.05;;;41.83;;
40653;SDS011;26344;45.532;9.232;2023-02-15T03:29:16;73.43;;;42.13;;
40653;SDS011;26344;45.532;9.232;2023-02-15T03:31:43;68.78;;;41.85;;
40653;SDS011;26344;45.532;9.232;2023-02-15T03:34:11;81.00;;;42.05;;
40653;SDS011;26344;45.532;9.232;2023-02-15T03:36:41;72.43;;;41.03;;
40653;SDS011;26344;45.532;9.232;2023-02-15T03:44:36;81.07;;;41.17;;
40653;SDS011;26344;45.532;9.232;2023-02-15T03:47:05;74.18;;;41.25;;
40653;SDS011;26344;45.532;9.232;2023-02-15T03:50:07;73.93;;;41.65;;
40653;SDS011;26344;45.532;9.232;2023-02-15T03:52:26;76.55;;;41.22;;
40653;SDS011;26344;45.532;9.232;2023-02-15T03:54:53;71.45;;;39.47;;
40653;SDS011;26344;45.532;9.232;2023-02-15T03:57:23;69.50;;;39.67;;
40653;SDS011;26344;45.532;9.232;2023-02-15T04:00:16;63.72;;;39.75;;
40653;SDS011;26344;45.532;9.232;2023-02-15T04:05:28;72.57;;;39.80;;
40653;SDS011;26344;45.532;9.232;2023-02-15T04:07:54;69.18;;;39.40;;
40653;SDS011;26344;45.532;9.232;2023-02-15T04:10:20;73.10;;;39.88;;
40653;SDS011;26344;45.532;9.232;2023-02-15T04:13:04;68.82;;;38.42;;
40653;SDS011;26344;45.532;9.232;2023-02-15T04:15:30;68.57;;;38.08;;
40653;SDS011;26344;45.532;9.232;2023-02-15T04:18:15;72.68;;;38.38;;
40653;SDS011;26344;45.532;9.232;2023-02-15T04:20:44;67.50;;;38.30;;
40653;SDS011;26344;45.532;9.232;2023-02-15T04:23:29;71.47;;;41.00;;
40653;SDS011;26344;45.532;9.232;2023-02-15T04:26:13;68.38;;;40.50;;
40653;SDS011;26344;45.532;9.232;2023-02-15T04:28:39;74.75;;;40.92;;
40653;SDS011;26344;45.532;9.232;2023-02-15T04:31:05;75.38;;;42.58;;
40653;SDS011;26344;45.532;9.232;2023-02-15T04:33:31;69.57;;;40.35;;
40653;SDS011;26344;45.532;9.232;2023-02-15T04:35:57;77.57;;;41.88;;
40653;SDS011;26344;45.532;9.232;2023-02-15T04:38:23;80.25;;;40.63;;
40653;SDS011;26344;45.532;9.232;2023-02-15T04:40:50;84.07;;;42.13;;
40653;SDS011;26344;45.532;9.232;2023-02-15T04:43:17;82.28;;;41.53;;
40653;SDS011;26344;45.532;9.232;2023-02-15T04:45:47;82.18;;;40.78;;
40653;SDS011;26344;45.532;9.232;2023-02-15T04:48:13;76.22;;;38.45;;
40653;SDS011;26344;45.532;9.232;2023-02-15T04:50:39;75.47;;;41.45;;
40653;SDS011;26344;45.532;9.232;2023-02-15T04:53:05;71.22;;;40.85;;
40653;SDS011;26344;45.532;9.232;2023-02-15T04:55:31;69.90;;;39.33;;
40653;SDS011;26344;45.532;9.232;2023-02-15T04:57:57;86.18;;;42.05;;
40653;SDS011;26344;45.532;9.232;2023-02-15T05:00:23;73.53;;;40.83;;
40653;SDS011;26344;45.532;9.232;2023-02-15T05:02:49;72.97;;;40.80;;
40653;SDS011;26344;45.532;9.232;2023-02-15T05:05:15;75.82;;;41.75;;
40653;SDS011;26344;45.532;9.232;2023-02-15T05:07:42;73.13;;;40.42;;
40653;SDS011;26344;45.532;9.232;2023-02-15T05:10:08;70.30;;;39.20;;
40653;SDS011;26344;45.532;9.232;2023-02-15T05:12:34;72.05;;;39.97;;
40653;SDS011;26344;45.532;9.232;2023-02-15T05:15:00;71.72;;;40.05;;
40653;SDS011;26344;45.532;9.232;2023-02-15T05:17:26;77.03;;;41.20;;
40653;SDS011;26344;45.532;9.232;2023-02-15T05:19:52;71.55;;;39.08;;
40653;SDS011;26344;45.532;9.232;2023-02-15T05:22:18;72.05;;;40.53;;
40653;SDS011;26344;45.532;9.232;2023-02-15T05:24:44;66.85;;;39.45;;
40653;SDS011;26344;45.532;9.232;2023-02-15T05:27:28;71.32;;;37.90;;
40653;SDS011;26344;45.532;9.232;2023-02-15T05:30:13;71.78;;;39.00;;
40653;SDS011;26344;45.532;9.232;2023-02-15T05:32:39;64.78;;;35.88;;
40653;SDS011;26344;45.532;9.232;2023-02-15T05:35:06;61.95;;;35.90;;
40653;SDS011;26344;45.532;9.232;2023-02-15T05:37:32;67.07;;;37.47;;
40653;SDS011;26344;45.532;9.232;2023-02-15T05:39:58;70.53;;;39.28;;
40653;SDS011;26344;45.532;9.232;2023-02-15T05:42:24;65.32;;;36.75;;
40653;SDS011;26344;45.532;9.232;2023-02-15T05:44:50;63.88;;;36.55;;
40653;SDS011;26344;45.532;9.232;2023-02-15T05:47:16;62.53;;;35.22;;
40653;SDS011;26344;45.532;9.232;2023-02-15T05:49:42;59.20;;;34.45;;
40653;SDS011;26344;45.532;9.232;2023-02-15T05:52:08;64.40;;;35.88;;
40653;SDS011;26344;45.532;9.232;2023-02-15T05:54:34;65.13;;;36.03;;
40653;SDS011;26344;45.532;9.232;2023-02-15T05:57:00;61.60;;;35.38;;
40653;SDS011;26344;45.532;9.232;2023-02-15T05:59:26;64.10;;;35.00;;
40653;SDS011;26344;45.532;9.232;2023-02-15T06:02:04;65.15;;;35.83;;
40653;SDS011;26344;45.532;9.232;2023-02-15T06:04:31;65.57;;;36.40;;
40653;SDS011;26344;45.532;9.232;2023-02-15T06:06:57;61.92;;;35.63;;
40653;SDS011;26344;45.532;9.232;2023-02-15T06:09:23;61.47;;;34.22;;
40653;SDS011;26344;45.532;9.232;2023-02-15T06:11:49;60.45;;;34.45;;
40653;SDS011;26344;45.532;9.232;2023-02-15T06:14:15;61.33;;;33.72;;
40653;SDS011;26344;45.532;9.232;2023-02-15T06:16:52;63.30;;;34.45;;
40653;SDS011;26344;45.532;9.232;2023-02-15T06:19:18;62.40;;;34.25;;
40653;SDS011;26344;45.532;9.232;2023-02-15T06:21:45;63.33;;;34.58;;
40653;SDS011;26344;45.532;9.232;2023-02-15T06:24:12;62.35;;;34.17;;
40653;SDS011;26344;45.532;9.232;2023-02-15T06:26:39;64.18;;;33.92;;
40653;SDS011;26344;45.532;9.232;2023-02-15T06:29:05;60.08;;;32.75;;
40653;SDS011;26344;45.532;9.232;2023-02-15T06:31:32;67.13;;;32.42;;
40653;SDS011;26344;45.532;9.232;2023-02-15T06:33:58;62.40;;;33.40;;
40653;SDS011;26344;45.532;9.232;2023-02-15T06:36:29;61.47;;;33.50;;
40653;SDS011;26344;45.532;9.232;2023-02-15T06:38:57;68.55;;;34.28;;
40653;SDS011;26344;45.532;9.232;2023-02-15T06:41:23;62.70;;;33.05;;
40653;SDS011;26344;45.532;9.232;2023-02-15T06:43:49;66.43;;;33.63;;
40653;SDS011;26344;45.532;9.232;2023-02-15T06:46:15;55.90;;;32.15;;
40653;SDS011;26344;45.532;9.232;2023-02-15T06:48:45;59.15;;;33.08;;
40653;SDS011;26344;45.532;9.232;2023-02-15T06:51:11;58.05;;;33.80;;
40653;SDS011;26344;45.532;9.232;2023-02-15T06:53:37;69.20;;;34.50;;
40653;SDS011;26344;45.532;9.232;2023-02-15T06:56:06;71.22;;;34.05;;
40653;SDS011;26344;45.532;9.232;2023-02-15T06:58:34;60.67;;;33.85;;
40653;SDS011;26344;45.532;9.232;2023-02-15T07:01:00;61.92;;;32.80;;
40653;SDS011;26344;45.532;9.232;2023-02-15T07:03:26;63.45;;;32.97;;
40653;SDS011;26344;45.532;9.232;2023-02-15T07:05:55;62.60;;;32.78;;
40653;SDS011;26344;45.532;9.232;2023-02-15T07:08:23;64.53;;;32.90;;
40653;SDS011;26344;45.532;9.232;2023-02-15T07:10:50;59.03;;;31.60;;
40653;SDS011;26344;45.532;9.232;2023-02-15T07:13:16;54.33;;;30.88;;
40653;SDS011;26344;45.532;9.232;2023-02-15T07:15:42;59.58;;;32.20;;
40653;SDS011;26344;45.532;9.232;2023-02-15T07:18:08;62.30;;;31.08;;
40653;SDS011;26344;45.532;9.232;2023-02-15T07:20:35;59.05;;;30.63;;
40653;SDS011;26344;45.532;9.232;2023-02-15T07:23:02;60.97;;;31.17;;
40653;SDS011;26344;45.532;9.232;2023-02-15T07:25:28;58.65;;;30.55;;
40653;SDS011;26344;45.532;9.232;2023-02-15T07:27:58;57.40;;;30.67;;
40653;SDS011;26344;45.532;9.232;2023-02-15T07:30:24;56.20;;;30.35;;
40653;SDS011;26344;45.532;9.232;2023-02-15T07:32:50;52.25;;;28.27;;
40653;SDS011;26344;45.532;9.232;2023-02-15T07:35:35;52.67;;;29.50;;
40653;SDS011;26344;45.532;9.232;2023-02-15T07:38:01;61.60;;;30.35;;
40653;SDS011;26344;45.532;9.232;2023-02-15T07:40:27;58.90;;;31.75;;
40653;SDS011;26344;45.532;9.232;2023-02-15T07:42:53;63.60;;;31.42;;
40653;SDS011;26344;45.532;9.232;2023-02-15T07:45:19;57.67;;;30.65;;
40653;SDS011;26344;45.532;9.232;2023-02-15T07:47:45;67.82;;;34.50;;
40653;SDS011;26344;45.532;9.232;2023-02-15T07:50:12;70.63;;;35.65;;
40653;SDS011;26344;45.532;9.232;2023-02-15T07:52:38;79.75;;;35.35;;
40653;SDS011;26344;45.532;9.232;2023-02-15T07:55:04;64.45;;;32.58;;
40653;SDS011;26344;45.532;9.232;2023-02-15T07:57:30;74.35;;;34.70;;
40653;SDS011;26344;45.532;9.232;2023-02-15T07:59:56;65.72;;;32.85;;
40653;SDS011;26344;45.532;9.232;2023-02-15T08:02:22;54.97;;;30.80;;
40653;SDS011;26344;45.532;9.232;2023-02-15T08:04:48;58.25;;;30.85;;
40653;SDS011;26344;45.532;9.232;2023-02-15T08:07:14;62.72;;;32.50;;
40653;SDS011;26344;45.532;9.232;2023-02-15T08:09:40;63.85;;;29.27;;
40653;SDS011;26344;45.532;9.232;2023-02-15T08:12:06;59.45;;;30.67;;
40653;SDS011;26344;45.532;9.232;2023-02-15T08:14:32;61.17;;;29.20;;
40653;SDS011;26344;45.532;9.232;2023-02-15T08:16:59;56.83;;;29.10;;
40653;SDS011;26344;45.532;9.232;2023-02-15T08:19:31;55.53;;;28.80;;
40653;SDS011;26344;45.532;9.232;2023-02-15T08:24:24;64.78;;;28.70;;
40653;SDS011;26344;45.532;9.232;2023-02-15T08:26:53;51.78;;;29.33;;
40653;SDS011;26344;45.532;9.232;2023-02-15T08:29:21;70.70;;;30.63;;
40653;SDS011;26344;45.532;9.232;2023-02-15T08:31:47;62.60;;;29.08;;
40653;SDS011;26344;45.532;9.232;2023-02-15T08:34:17;64.85;;;30.17;;
40653;SDS011;26344;45.532;9.232;2023-02-15T08:36:43;73.15;;;29.38;;
40653;SDS011;26344;45.532;9.232;2023-02-15T08:39:13;63.77;;;29.90;;
40653;SDS011;26344;45.532;9.232;2023-02-15T08:41:58;61.88;;;28.02;;
40653;SDS011;26344;45.532;9.232;2023-02-15T08:44:27;58.03;;;28.52;;
40653;SDS011;26344;45.532;9.232;2023-02-15T08:46:54;72.28;;;29.05;;
40653;SDS011;26344;45.532;9.232;2023-02-15T08:49:22;58.00;;;27.52;;
40653;SDS011;26344;45.532;9.232;2023-02-15T08:51:49;51.35;;;28.17;;
40653;SDS011;26344;45.532;9.232;2023-02-15T08:54:16;50.25;;;27.73;;
40653;SDS011;26344;45.532;9.232;2023-02-15T08:56:43;58.40;;;29.10;;
40653;SDS011;26344;45.532;9.232;2023-02-15T08:59:17;51.05;;;28.02;;
40653;SDS011;26344;45.532;9.232;2023-02-15T09:01:44;52.53;;;27.45;;
40653;SDS011;26344;45.532;9.232;2023-02-15T09:04:10;54.08;;;28.35;;
40653;SDS011;26344;45.532;9.232;2023-02-15T09:06:38;58.13;;;28.92;;
40653;SDS011;26344;45.532;9.232;2023-02-15T09:09:04;44.58;;;22.85;;
40653;SDS011;26344;45.532;9.232;2023-02-15T09:11:33;34.17;;;21.20;;
40653;SDS011;26344;45.532;9.232;2023-02-15T09:14:04;44.42;;;24.52;;
40653;SDS011;26344;45.532;9.232;2023-02-15T09:16:31;52.08;;;24.95;;
40653;SDS011;26344;45.532;9.232;2023-02-15T09:18:58;53.13;;;26.10;;
40653;SDS011;26344;45.532;9.232;2023-02-15T09:21:26;44.45;;;25.45;;
40653;SDS011;26344;45.532;9.232;2023-02-15T09:23:55;42.83;;;23.67;;
40653;SDS011;26344;45.532;9.232;2023-02-15T09:26:22;40.92;;;23.08;;
40653;SDS011;26344;45.532;9.232;2023-02-15T09:28:51;43.75;;;21.95;;
40653;SDS011;26344;45.532;9.232;2023-02-15T09:31:18;40.40;;;22.77;;
40653;SDS011;26344;45.532;9.232;2023-02-15T09:33:45;38.53;;;22.65;;
40653;SDS011;26344;45.532;9.232;2023-02-15T09:38:40;42.63;;;23.33;;
40653;SDS011;26344;45.532;9.232;2023-02-15T09:49:44;46.65;;;24.48;;
40653;SDS011;26344;45.532;9.232;2023-02-15T09:52:09;42.80;;;24.48;;
40653;SDS011;26344;45.532;9.232;2023-02-15T09:57:13;48.22;;;25.27;;
40653;SDS011;26344;45.532;9.232;2023-02-15T10:20:30;48.15;;;25.95;;
40653;SDS011;26344;45.532;9.232;2023-02-15T10:27:51;50.20;;;27.60;;
40653;SDS011;26344;45.532;9.232;2023-02-15T10:30:19;49.35;;;26.60;;
40653;SDS011;26344;45.532;9.232;2023-02-15T10:32:54;48.88;;;26.90;;
40653;SDS011;26344;45.532;9.232;2023-02-15T10:35:31;48.78;;;28.77;;
40653;SDS011;26344;45.532;9.232;2023-02-15T10:49:32;55.65;;;31.77;;
40653;SDS011;26344;45.532;9.232;2023-02-15T10:57:11;61.78;;;32.45;;
40653;SDS011;26344;45.532;9.232;2023-02-15T11:07:25;53.55;;;30.75;;
40653;SDS011;26344;45.532;9.232;2023-02-15T11:12:40;57.33;;;30.25;;
40653;SDS011;26344;45.532;9.232;2023-02-15T11:15:13;63.78;;;30.38;;
40653;SDS011;26344;45.532;9.232;2023-02-15T11:17:43;51.42;;;32.15;;
40653;SDS011;26344;45.532;9.232;2023-02-15T11:22:37;54.58;;;31.33;;
40653;SDS011;26344;45.532;9.232;2023-02-15T11:25:05;57.08;;;31.92;;
40653;SDS011;26344;45.532;9.232;2023-02-15T11:27:40;59.92;;;33.55;;
40653;SDS011;26344;45.532;9.232;2023-02-15T11:30:12;61.25;;;32.40;;
40653;SDS011;26344;45.532;9.232;2023-02-15T11:32:39;57.65;;;32.65;;
40653;SDS011;26344;45.532;9.232;2023-02-15T11:35:11;56.25;;;31.42;;
40653;SDS011;26344;45.532;9.232;2023-02-15T11:37:48;56.25;;;32.22;;
40653;SDS011;26344;45.532;9.232;2023-02-15T11:42:47;46.47;;;28.80;;
40653;SDS011;26344;45.532;9.232;2023-02-15T11:45:28;54.70;;;29.55;;
40653;SDS011;26344;45.532;9.232;2023-02-15T11:47:56;47.55;;;30.17;;
40653;SDS011;26344;45.532;9.232;2023-02-15T11:50:24;58.25;;;31.15;;
40653;SDS011;26344;45.532;9.232;2023-02-15T11:52:56;56.78;;;32.67;;
40653;SDS011;26344;45.532;9.232;2023-02-15T11:55:23;64.80;;;32.47;;
40653;SDS011;26344;45.532;9.232;2023-02-15T11:57:52;59.55;;;31.65;;
40653;SDS011;26344;45.532;9.232;2023-02-15T12:00:27;61.97;;;35.63;;
40653;SDS011;26344;45.532;9.232;2023-02-15T12:02:56;58.90;;;36.50;;
40653;SDS011;26344;45.532;9.232;2023-02-15T12:05:23;66.43;;;37.08;;
40653;SDS011;26344;45.532;9.232;2023-02-15T12:07:55;62.05;;;36.63;;
40653;SDS011;26344;45.532;9.232;2023-02-15T12:10:26;66.63;;;37.30;;
40653;SDS011;26344;45.532;9.232;2023-02-15T12:13:08;70.35;;;38.80;;
40653;SDS011;26344;45.532;9.232;2023-02-15T12:15:34;66.15;;;38.40;;
40653;SDS011;26344;45.532;9.232;2023-02-15T12:18:02;67.05;;;37.95;;
40653;SDS011;26344;45.532;9.232;2023-02-15T12:20:29;69.97;;;40.30;;
40653;SDS011;26344;45.532;9.232;2023-02-15T12:22:59;68.43;;;39.55;;
40653;SDS011;26344;45.532;9.232;2023-02-15T12:25:36;62.40;;;39.53;;
40653;SDS011;26344;45.532;9.232;2023-02-15T12:28:15;75.53;;;43.78;;
40653;SDS011;26344;45.532;9.232;2023-02-15T12:30:44;67.03;;;42.47;;
40653;SDS011;26344;45.532;9.232;2023-02-15T12:35:49;70.38;;;43.35;;
40653;SDS011;26344;45.532;9.232;2023-02-15T12:38:24;74.93;;;46.30;;
40653;SDS011;26344;45.532;9.232;2023-02-15T12:41:01;69.75;;;43.30;;
40653;SDS011;26344;45.532;9.232;2023-02-15T12:43:35;75.82;;;46.97;;
40653;SDS011;26344;45.532;9.232;2023-02-15T12:48:40;88.57;;;49.40;;
40653;SDS011;26344;45.532;9.232;2023-02-15T12:51:07;89.55;;;53.08;;
40653;SDS011;26344;45.532;9.232;2023-02-15T12:53:34;93.28;;;52.33;;
40653;SDS011;26344;45.532;9.232;2023-02-15T12:56:01;88.15;;;52.60;;
40653;SDS011;26344;45.532;9.232;2023-02-15T12:58:32;89.90;;;51.60;;
40653;SDS011;26344;45.532;9.232;2023-02-15T13:03:38;85.60;;;53.55;;
40653;SDS011;26344;45.532;9.232;2023-02-15T13:06:04;88.10;;;53.60;;
40653;SDS011;26344;45.532;9.232;2023-02-15T13:08:39;91.10;;;52.47;;
40653;SDS011;26344;45.532;9.232;2023-02-15T13:11:11;81.68;;;51.35;;
40653;SDS011;26344;45.532;9.232;2023-02-15T13:13:59;96.03;;;53.10;;
40653;SDS011;26344;45.532;9.232;2023-02-15T13:16:32;84.28;;;53.72;;
40653;SDS011;26344;45.532;9.232;2023-02-15T13:19:02;105.88;;;55.75;;
40653;SDS011;26344;45.532;9.232;2023-02-15T13:21:33;98.65;;;54.92;;
40653;SDS011;26344;45.532;9.232;2023-02-15T13:24:10;91.03;;;53.47;;
40653;SDS011;26344;45.532;9.232;2023-02-15T13:26:45;91.88;;;55.03;;
40653;SDS011;26344;45.532;9.232;2023-02-15T13:29:21;87.13;;;52.97;;
40653;SDS011;26344;45.532;9.232;2023-02-15T13:31:56;97.18;;;53.70;;
40653;SDS011;26344;45.532;9.232;2023-02-15T13:34:30;91.50;;;55.17;;
40653;SDS011;26344;45.532;9.232;2023-02-15T13:37:16;97.72;;;54.40;;
40653;SDS011;26344;45.532;9.232;2023-02-15T13:42:30;94.28;;;53.83;;
40653;SDS011;26344;45.532;9.232;2023-02-15T13:52:29;97.55;;;52.58;;
40653;SDS011;26344;45.532;9.232;2023-02-15T14:00:27;96.65;;;51.80;;
40653;SDS011;26344;45.532;9.232;2023-02-15T14:15:50;83.43;;;49.00;;
40653;SDS011;26344;45.532;9.232;2023-02-15T14:23:25;86.93;;;48.75;;
40653;SDS011;26344;45.532;9.232;2023-02-15T14:29:06;86.88;;;49.25;;
40653;SDS011;26344;45.532;9.232;2023-02-15T14:31:35;83.47;;;47.58;;
40653;SDS011;26344;45.532;9.232;2023-02-15T14:34:04;79.13;;;47.25;;
40653;SDS011;26344;45.532;9.232;2023-02-15T14:36:32;82.20;;;48.63;;
40653;SDS011;26344;45.532;9.232;2023-02-15T14:41:59;81.95;;;47.30;;
40653;SDS011;26344;45.532;9.232;2023-02-15T14:44:27;76.72;;;45.15;;
40653;SDS011;26344;45.532;9.232;2023-02-15T14:49:36;85.03;;;46.75;;
40653;SDS011;26344;45.532;9.232;2023-02-15T14:52:05;80.65;;;45.97;;
40653;SDS011;26344;45.532;9.232;2023-02-15T14:59:44;87.03;;;47.05;;
40653;SDS011;26344;45.532;9.232;2023-02-15T15:03:12;85.82;;;47.95;;
40653;SDS011;26344;45.532;9.232;2023-02-15T15:07:54;86.93;;;47.38;;
40653;SDS011;26344;45.532;9.232;2023-02-15T15:12:53;85.10;;;47.85;;
40653;SDS011;26344;45.532;9.232;2023-02-15T15:18:05;89.00;;;48.28;;
40653;SDS011;26344;45.532;9.232;2023-02-15T15:23:38;85.03;;;47.60;;
40653;SDS011;26344;45.532;9.232;2023-02-15T15:26:21;91.38;;;46.70;;
40653;SDS011;26344;45.532;9.232;2023-02-15T15:33:46;84.85;;;47.00;;
40653;SDS011;26344;45.532;9.232;2023-02-15T15:36:26;89.97;;;47.15;;
40653;SDS011;26344;45.532;9.232;2023-02-15T15:41:42;82.68;;;44.55;;
40653;SDS011;26344;45.532;9.232;2023-02-15T15:49:14;97.72;;;44.22;;
40653;SDS011;26344;45.532;9.232;2023-02-15T15:51:41;83.63;;;43.92;;
40653;SDS011;26344;45.532;9.232;2023-02-15T15:54:15;83.88;;;43.90;;
40653;SDS011;26344;45.532;9.232;2023-02-15T15:56:43;89.43;;;44.42;;
40653;SDS011;26344;45.532;9.232;2023-02-15T15:59:12;85.88;;;43.33;;
40653;SDS011;26344;45.532;9.232;2023-02-15T16:01:41;88.03;;;44.60;;
40653;SDS011;26344;45.532;9.232;2023-02-15T16:04:22;90.47;;;43.65;;
40653;SDS011;26344;45.532;9.232;2023-02-15T16:06:49;84.25;;;43.45;;
40653;SDS011;26344;45.532;9.232;2023-02-15T16:09:16;92.35;;;43.28;;
40653;SDS011;26344;45.532;9.232;2023-02-15T16:11:43;88.03;;;42.78;;
40653;SDS011;26344;45.532;9.232;2023-02-15T16:14:11;87.28;;;43.13;;
40653;SDS011;26344;45.532;9.232;2023-02-15T16:16:37;90.95;;;44.22;;
40653;SDS011;26344;45.532;9.232;2023-02-15T16:19:04;90.63;;;43.58;;
40653;SDS011;26344;45.532;9.232;2023-02-15T16:21:34;86.35;;;44.05;;
40653;SDS011;26344;45.532;9.232;2023-02-15T16:29:15;87.70;;;42.63;;
40653;SDS011;26344;45.532;9.232;2023-02-15T16:31:41;89.75;;;43.38;;
40653;SDS011;26344;45.532;9.232;2023-02-15T16:34:09;88.63;;;43.38;;
40653;SDS011;26344;45.532;9.232;2023-02-15T16:36:42;92.40;;;42.47;;
40653;SDS011;26344;45.532;9.232;2023-02-15T16:39:09;87.25;;;44.15;;
40653;SDS011;26344;45.532;9.232;2023-02-15T16:41:36;88.65;;;43.15;;
40653;SDS011;26344;45.532;9.232;2023-02-15T16:44:04;91.22;;;43.97;;
40653;SDS011;26344;45.532;9.232;2023-02-15T16:46:32;92.65;;;42.05;;
40653;SDS011;26344;45.532;9.232;2023-02-15T16:49:00;91.00;;;42.60;;
40653;SDS011;26344;45.532;9.232;2023-02-15T16:51:28;93.20;;;44.00;;
40653;SDS011;26344;45.532;9.232;2023-02-15T16:53:55;87.22;;;42.42;;
40653;SDS011;26344;45.532;9.232;2023-02-15T16:56:31;85.30;;;42.47;;
40653;SDS011;26344;45.532;9.232;2023-02-15T16:58:58;94.65;;;43.13;;
40653;SDS011;26344;45.532;9.232;2023-02-15T17:01:26;93.57;;;44.78;;
40653;SDS011;26344;45.532;9.232;2023-02-15T17:04:10;93.97;;;44.58;;
40653;SDS011;26344;45.532;9.232;2023-02-15T17:06:36;89.53;;;43.78;;
40653;SDS011;26344;45.532;9.232;2023-02-15T17:09:03;84.90;;;42.78;;
40653;SDS011;26344;45.532;9.232;2023-02-15T17:11:36;96.55;;;43.53;;
40653;SDS011;26344;45.532;9.232;2023-02-15T17:19:00;100.13;;;44.60;;
40653;SDS011;26344;45.532;9.232;2023-02-15T17:21:34;100.32;;;43.25;;
40653;SDS011;26344;45.532;9.232;2023-02-15T17:24:03;100.90;;;45.92;;
40653;SDS011;26344;45.532;9.232;2023-02-15T17:26:33;93.35;;;46.40;;
40653;SDS011;26344;45.532;9.232;2023-02-15T17:29:17;95.40;;;45.75;;
40653;SDS011;26344;45.532;9.232;2023-02-15T17:31:47;102.45;;;46.97;;
40653;SDS011;26344;45.532;9.232;2023-02-15T17:37:01;109.43;;;46.95;;
40653;SDS011;26344;45.532;9.232;2023-02-15T17:39:27;97.75;;;46.10;;
40653;SDS011;26344;45.532;9.232;2023-02-15T17:41:54;97.30;;;44.47;;
40653;SDS011;26344;45.532;9.232;2023-02-15T17:44:23;99.25;;;45.03;;
40653;SDS011;26344;45.532;9.232;2023-02-15T17:46:50;97.13;;;44.60;;
40653;SDS011;26344;45.532;9.232;2023-02-15T17:49:18;108.40;;;45.72;;
40653;SDS011;26344;45.532;9.232;2023-02-15T17:51:51;101.28;;;45.65;;